Time;durP1;ratioP1;P1;durP2;ratioP2;P2;SDS_P1;SDS_P2;PMS_P1;PMS_P2;Temp;Humidity;BMP_temperature;BMP_pressure;BME280_temperature;BME280_humidity;BME280_pressure;Samples;Min_cycle;Max_cycle;Signal;HPM_P1;HPM_P2
2022/12/30 00:01:18;;;;;;;3.90;3.10;;;8.80;93.40;;;;;;5041325;28;20202;-85
2022/12/30 00:03:44;;;;;;;1.50;1.40;;;8.80;93.60;;;;;;5036708;28;20202;-85
2022/12/30 00:06:15;;;;;;;1.73;1.60;;;8.80;93.80;;;;;;5035418;28;20210;-85
2022/12/30 00:08:47;;;;;;;1.48;1.30;;;8.90;93.60;;;;;;5038336;28;20197;-84
2022/12/30 00:11:15;;;;;;;1.55;1.40;;;9.00;93.60;;;;;;5041042;28;20230;-85
2022/12/30 00:33:26;;;;;;;2.03;1.30;;;9.20;94.20;;;;;;5037935;28;20211;-85
2022/12/30 00:35:53;;;;;;;1.52;1.30;;;9.10;94.40;;;;;;5035666;28;20210;-85
2022/12/30 00:38:20;;;;;;;1.48;1.20;;;9.10;94.50;;;;;;5039994;28;20202;-84
2022/12/30 00:43:32;;;;;;;1.77;1.10;;;9.20;94.50;;;;;;5045827;28;20701;-84
2022/12/30 00:45:59;;;;;;;1.10;1.00;;;9.10;94.70;;;;;;5039534;28;20289;-84
2022/12/30 00:56:44;;;;;;;1.35;1.25;;;8.90;93.20;;;;;;5042039;28;20260;-84
2022/12/30 00:59:12;;;;;;;2.42;1.95;;;8.60;91.40;;;;;;5041098;28;20202;-84
2022/12/30 01:01:39;;;;;;;0.80;0.80;;;8.30;92.50;;;;;;5043738;28;20625;-85
2022/12/30 01:04:06;;;;;;;0.63;0.63;;;8.00;93.00;;;;;;5038590;28;20199;-85
2022/12/30 01:06:33;;;;;;;0.70;0.60;;;7.80;94.00;;;;;;5042422;28;20213;-84
2022/12/30 01:09:00;;;;;;;0.47;0.47;;;7.60;94.70;;;;;;5042075;28;20201;-85
2022/12/30 01:11:26;;;;;;;1.05;1.00;;;7.50;95.20;;;;;;5041526;28;20206;-84
2022/12/30 01:13:55;;;;;;;0.82;0.60;;;7.50;95.60;;;;;;5040942;28;20198;-84
2022/12/30 01:16:21;;;;;;;0.90;0.70;;;7.40;95.60;;;;;;5040311;28;20234;-84
2022/12/30 01:18:48;;;;;;;0.70;0.70;;;7.30;96.20;;;;;;5042758;28;20194;-85
2022/12/30 01:21:15;;;;;;;0.50;0.50;;;7.30;96.60;;;;;;5040928;28;20213;-85
2022/12/30 01:23:43;;;;;;;0.73;0.73;;;7.20;96.60;;;;;;5042899;28;20222;-85
2022/12/30 01:26:10;;;;;;;0.70;0.70;;;7.20;97.10;;;;;;5041719;28;20206;-85
2022/12/30 01:28:38;;;;;;;0.40;0.40;;;7.10;97.10;;;;;;5039325;28;20198;-85
2022/12/30 01:31:07;;;;;;;0.63;0.57;;;7.10;96.90;;;;;;5039533;28;20205;-84
2022/12/30 01:33:35;;;;;;;0.40;0.40;;;7.10;97.40;;;;;;5044474;28;20205;-84
2022/12/30 01:36:02;;;;;;;0.40;0.40;;;7.00;96.90;;;;;;5040393;28;20899;-85
2022/12/30 01:38:30;;;;;;;0.50;0.40;;;7.00;97.40;;;;;;5040485;28;20201;-84
2022/12/30 01:40:57;;;;;;;0.50;0.50;;;7.00;97.60;;;;;;5041444;28;20202;-84
2022/12/30 01:43:42;;;;;;;1.40;0.50;;;6.90;97.40;;;;;;5038231;28;20985;-85
2022/12/30 01:46:15;;;;;;;0.60;0.60;;;6.90;97.40;;;;;;5043308;28;20202;-85
2022/12/30 01:48:42;;;;;;;0.53;0.53;;;6.80;97.60;;;;;;5037673;28;20206;-85
2022/12/30 01:51:14;;;;;;;0.97;0.53;;;6.80;97.90;;;;;;5040678;28;20205;-84
2022/12/30 01:53:43;;;;;;;0.60;0.50;;;6.90;97.90;;;;;;5040456;28;20647;-85
2022/12/30 01:56:13;;;;;;;0.70;0.70;;;6.90;97.70;;;;;;5041478;28;20698;-85
2022/12/30 01:58:44;;;;;;;1.77;0.57;;;6.80;97.90;;;;;;5039884;28;20222;-85
2022/12/30 02:01:13;;;;;;;0.70;0.70;;;6.80;98.10;;;;;;5040356;28;20206;-85
2022/12/30 02:03:44;;;;;;;0.70;0.70;;;6.80;98.20;;;;;;5040055;28;20198;-85
2022/12/30 02:06:12;;;;;;;0.60;0.60;;;6.70;98.10;;;;;;5040258;28;20758;-84
2022/12/30 02:08:39;;;;;;;0.70;0.70;;;6.60;98.40;;;;;;5037528;28;20224;-85
2022/12/30 02:11:07;;;;;;;0.70;0.70;;;6.60;98.40;;;;;;5038335;28;20226;-84
2022/12/30 02:13:34;;;;;;;0.77;0.60;;;6.70;98.20;;;;;;5041161;28;20228;-85
2022/12/30 02:16:28;;;;;;;0.50;0.50;;;6.70;98.20;;;;;;5038772;28;20202;-84
2022/12/30 02:19:04;;;;;;;0.60;0.60;;;6.60;98.60;;;;;;5039944;28;20199;-85
2022/12/30 02:21:45;;;;;;;1.25;0.60;;;6.60;98.50;;;;;;5040188;28;20213;-85
2022/12/30 02:24:59;;;;;;;3.10;0.70;;;6.50;98.70;;;;;;5038541;28;20245;-84
2022/12/30 02:27:53;;;;;;;0.60;0.60;;;6.50;99.30;;;;;;5038963;28;20207;-85
2022/12/30 02:30:21;;;;;;;0.65;0.65;;;6.60;99.20;;;;;;5038520;28;20203;-84
2022/12/30 02:33:04;;;;;;;0.40;0.40;;;6.60;98.90;;;;;;5042600;28;20202;-84
2022/12/30 02:35:38;;;;;;;0.60;0.60;;;6.60;99.00;;;;;;5039913;28;20772;-84
2022/12/30 02:38:14;;;;;;;0.57;0.57;;;6.60;98.90;;;;;;5039357;28;20233;-85
2022/12/30 02:46:25;;;;;;;0.47;0.43;;;6.60;98.90;;;;;;5036814;28;20214;-85
2022/12/30 02:48:57;;;;;;;0.70;0.70;;;6.70;98.80;;;;;;5040454;28;20328;-85
2022/12/30 02:54:09;;;;;;;0.60;0.60;;;6.70;98.90;;;;;;5041522;28;20201;-85
2022/12/30 02:56:36;;;;;;;0.70;0.70;;;6.60;99.10;;;;;;5039531;28;20668;-85
2022/12/30 03:04:54;;;;;;;1.33;0.70;;;6.50;99.90;;;;;;5036626;28;20205;-86
2022/12/30 03:07:28;;;;;;;0.60;0.60;;;6.50;99.90;;;;;;5041344;28;20673;-84
2022/12/30 03:13:08;;;;;;;0.77;0.77;;;6.50;99.90;;;;;;5019728;28;20812;-84
2022/12/30 03:15:41;;;;;;;0.80;0.40;;;6.50;99.90;;;;;;5038041;28;20730;-85
2022/12/30 03:18:09;;;;;;;0.90;0.73;;;6.50;99.90;;;;;;5037040;28;20264;-84
2022/12/30 03:20:39;;;;;;;0.90;0.55;;;6.50;99.90;;;;;;5038370;28;20206;-85
2022/12/30 03:28:43;;;;;;;0.50;0.50;;;6.40;99.90;;;;;;5035058;28;20679;-85
2022/12/30 03:31:14;;;;;;;0.50;0.50;;;6.40;99.90;;;;;;5040532;28;20202;-85
2022/12/30 03:33:41;;;;;;;0.53;0.50;;;6.50;99.90;;;;;;5040813;28;20198;-84
2022/12/30 03:36:14;;;;;;;0.73;0.73;;;6.50;99.90;;;;;;5039703;28;20203;-85
2022/12/30 03:38:47;;;;;;;0.60;0.60;;;6.50;99.90;;;;;;5037664;28;20199;-85
2022/12/30 03:41:14;;;;;;;1.30;0.80;;;6.50;99.90;;;;;;5038379;28;20221;-84
2022/12/30 03:43:42;;;;;;;0.90;0.70;;;6.40;99.90;;;;;;5041334;28;20201;-85
2022/12/30 03:46:09;;;;;;;0.60;0.60;;;6.30;99.90;;;;;;5037134;28;20638;-85
2022/12/30 03:48:36;;;;;;;0.52;0.52;;;6.30;99.90;;;;;;5040889;28;20325;-84
2022/12/30 03:51:04;;;;;;;0.63;0.63;;;6.30;99.90;;;;;;5036120;28;20203;-85
2022/12/30 03:53:32;;;;;;;0.70;0.70;;;6.30;99.90;;;;;;5038278;28;20681;-85
2022/12/30 03:55:58;;;;;;;1.00;0.70;;;6.30;99.90;;;;;;5037710;28;20204;-85
2022/12/30 03:58:25;;;;;;;0.50;0.50;;;6.30;99.90;;;;;;5039468;28;20715;-85
2022/12/30 04:00:52;;;;;;;1.00;0.60;;;6.30;99.90;;;;;;5042204;28;20198;-85
2022/12/30 04:03:20;;;;;;;0.80;0.60;;;6.20;99.90;;;;;;5036080;28;20658;-84
2022/12/30 04:05:46;;;;;;;0.50;0.50;;;6.20;99.90;;;;;;5039941;28;20568;-84
2022/12/30 04:08:13;;;;;;;0.60;0.50;;;6.20;99.90;;;;;;5036279;28;20202;-85
2022/12/30 04:10:41;;;;;;;0.60;0.60;;;6.20;99.90;;;;;;5038944;28;20230;-85
2022/12/30 04:13:08;;;;;;;2.05;0.47;;;6.10;99.90;;;;;;5035864;28;20202;-85
2022/12/30 04:15:35;;;;;;;1.33;0.60;;;6.00;99.90;;;;;;5040451;28;20201;-84
2022/12/30 04:18:02;;;;;;;0.67;0.60;;;6.00;99.90;;;;;;5036105;28;20222;-85
2022/12/30 04:20:29;;;;;;;1.23;0.67;;;6.00;99.90;;;;;;5039166;28;20209;-85
2022/12/30 04:22:58;;;;;;;0.83;0.50;;;6.10;99.90;;;;;;5036487;28;20654;-85
2022/12/30 04:25:25;;;;;;;2.00;0.60;;;6.10;99.90;;;;;;5037952;28;20260;-85
2022/12/30 04:27:53;;;;;;;0.57;0.57;;;6.10;99.90;;;;;;5037525;28;20201;-85
2022/12/30 04:30:20;;;;;;;0.70;0.57;;;6.10;99.90;;;;;;5038126;28;20198;-85
2022/12/30 04:32:47;;;;;;;0.60;0.60;;;6.10;99.90;;;;;;5042610;28;20654;-85
2022/12/30 04:35:13;;;;;;;0.53;0.53;;;6.00;99.90;;;;;;5035600;28;20195;-85
2022/12/30 04:37:40;;;;;;;0.40;0.40;;;6.00;99.90;;;;;;5036368;28;20587;-85
2022/12/30 04:40:09;;;;;;;0.83;0.60;;;6.00;99.90;;;;;;5038236;28;20209;-85
2022/12/30 04:42:35;;;;;;;0.90;0.63;;;6.10;99.90;;;;;;5034400;28;20203;-85
2022/12/30 04:45:04;;;;;;;0.40;0.40;;;6.10;99.90;;;;;;5038233;28;20661;-85
2022/12/30 04:47:31;;;;;;;0.52;0.52;;;6.10;99.90;;;;;;5037960;28;20229;-85
2022/12/30 04:49:58;;;;;;;1.77;0.50;;;6.00;99.90;;;;;;5035660;28;20215;-85
2022/12/30 04:52:25;;;;;;;0.77;0.60;;;6.00;99.90;;;;;;5040937;28;20277;-85
2022/12/30 04:54:51;;;;;;;0.57;0.57;;;5.90;99.90;;;;;;5036570;28;20213;-85
2022/12/30 04:57:18;;;;;;;0.60;0.60;;;6.00;99.90;;;;;;5040769;28;20213;-85
2022/12/30 04:59:45;;;;;;;2.28;0.65;;;6.10;99.90;;;;;;5034145;28;20205;-85
2022/12/30 05:02:13;;;;;;;0.50;0.50;;;6.10;99.90;;;;;;5035455;28;20235;-85
2022/12/30 05:04:40;;;;;;;0.60;0.60;;;6.10;99.90;;;;;;5037101;28;20218;-85
2022/12/30 05:07:07;;;;;;;0.63;0.50;;;6.10;99.90;;;;;;5038311;28;20208;-85
2022/12/30 05:09:34;;;;;;;0.70;0.60;;;6.10;99.90;;;;;;5036620;28;20761;-85
2022/12/30 05:12:01;;;;;;;0.90;0.60;;;6.00;99.90;;;;;;5039079;28;20194;-85
2022/12/30 05:14:27;;;;;;;0.70;0.70;;;6.00;99.90;;;;;;5035225;28;20198;-85
2022/12/30 05:16:54;;;;;;;0.50;0.50;;;6.00;99.90;;;;;;5038639;28;20224;-85
2022/12/30 05:19:22;;;;;;;0.90;0.60;;;5.90;99.90;;;;;;5039575;28;20198;-85
2022/12/30 05:21:49;;;;;;;0.60;0.50;;;6.00;99.90;;;;;;5037105;28;20197;-85
2022/12/30 05:27:00;;;;;;;0.60;0.60;;;5.90;99.90;;;;;;5039731;28;20284;-85
2022/12/30 05:29:27;;;;;;;1.00;0.75;;;5.80;99.90;;;;;;5042649;28;20207;-85
2022/12/30 05:31:54;;;;;;;1.80;0.70;;;5.80;99.90;;;;;;5045422;28;20208;-85
2022/12/30 05:34:22;;;;;;;0.52;0.52;;;5.80;99.90;;;;;;5041042;28;20209;-85
2022/12/30 05:36:50;;;;;;;0.53;0.53;;;5.70;99.90;;;;;;5040765;28;20206;-85
2022/12/30 05:39:17;;;;;;;0.80;0.80;;;5.70;99.90;;;;;;5040220;28;20202;-85
2022/12/30 05:41:44;;;;;;;0.70;0.50;;;5.80;99.90;;;;;;5044194;28;20208;-85
2022/12/30 05:44:11;;;;;;;0.70;0.70;;;5.70;99.90;;;;;;5040312;28;20198;-85
2022/12/30 05:46:38;;;;;;;1.30;0.65;;;5.80;99.90;;;;;;5040850;28;20544;-85
2022/12/30 05:49:04;;;;;;;1.53;0.60;;;5.80;99.90;;;;;;5041337;28;20207;-85
2022/12/30 05:51:33;;;;;;;0.53;0.53;;;5.80;99.90;;;;;;5040404;28;20560;-85
2022/12/30 05:54:00;;;;;;;0.85;0.82;;;5.70;99.90;;;;;;5038165;28;20565;-85
2022/12/30 05:56:26;;;;;;;1.00;0.80;;;5.70;99.90;;;;;;5039372;28;20582;-85
2022/12/30 05:58:56;;;;;;;0.68;0.68;;;5.80;99.90;;;;;;5041677;28;20693;-85
2022/12/30 06:01:22;;;;;;;2.07;0.73;;;5.80;99.90;;;;;;5040767;28;20559;-85
2022/12/30 06:03:49;;;;;;;1.10;0.60;;;5.70;99.90;;;;;;5041419;28;20206;-85
2022/12/30 06:06:19;;;;;;;1.00;0.60;;;5.70;99.90;;;;;;5042008;28;20201;-85
2022/12/30 06:08:47;;;;;;;0.50;0.50;;;5.70;99.90;;;;;;5037589;28;20206;-85
2022/12/30 06:11:14;;;;;;;0.60;0.60;;;5.60;99.90;;;;;;5040591;28;20588;-85
2022/12/30 06:13:41;;;;;;;0.70;0.70;;;5.60;99.90;;;;;;5037573;28;20199;-85
2022/12/30 06:16:10;;;;;;;0.97;0.60;;;5.60;99.90;;;;;;5037667;28;20717;-86
2022/12/30 06:18:37;;;;;;;0.70;0.70;;;5.60;99.90;;;;;;5038070;28;20257;-85
2022/12/30 06:21:05;;;;;;;0.50;0.47;;;5.50;99.90;;;;;;5041298;28;20277;-85
2022/12/30 06:23:32;;;;;;;0.97;0.57;;;5.50;99.90;;;;;;5037210;28;20214;-85
2022/12/30 06:26:00;;;;;;;0.53;0.53;;;5.50;99.90;;;;;;5042119;28;20206;-85
2022/12/30 06:28:28;;;;;;;1.17;0.60;;;5.50;99.90;;;;;;5039805;28;20205;-85
2022/12/30 06:30:55;;;;;;;0.93;0.67;;;5.40;99.90;;;;;;5040360;28;20206;-85
2022/12/30 06:33:23;;;;;;;1.33;0.70;;;5.50;99.90;;;;;;5043773;28;20195;-85
2022/12/30 06:35:50;;;;;;;0.60;0.60;;;5.40;99.90;;;;;;5038067;28;20195;-85
2022/12/30 06:38:17;;;;;;;3.40;0.77;;;5.40;99.90;;;;;;5042975;28;20478;-85
2022/12/30 06:40:44;;;;;;;1.00;0.73;;;5.30;99.90;;;;;;5039726;28;20208;-85
2022/12/30 06:43:13;;;;;;;1.30;1.00;;;5.30;99.90;;;;;;5041503;28;20658;-85
2022/12/30 06:45:40;;;;;;;2.20;0.90;;;5.30;99.90;;;;;;5038851;28;20203;-85
2022/12/30 06:48:07;;;;;;;1.20;0.97;;;5.30;99.90;;;;;;5036714;28;20207;-85
2022/12/30 06:50:33;;;;;;;0.80;0.80;;;5.30;99.90;;;;;;5040243;28;20580;-85
2022/12/30 06:53:00;;;;;;;1.00;1.00;;;5.20;99.90;;;;;;5042818;28;20205;-85
2022/12/30 06:55:27;;;;;;;1.40;1.13;;;5.20;99.90;;;;;;5041220;28;20205;-85
2022/12/30 06:57:54;;;;;;;4.07;1.50;;;5.10;99.90;;;;;;5038691;28;20612;-85
2022/12/30 07:00:22;;;;;;;1.40;1.30;;;5.00;99.90;;;;;;5039706;28;20209;-85
2022/12/30 07:02:49;;;;;;;1.90;1.50;;;5.00;99.90;;;;;;5036432;28;20202;-85
2022/12/30 07:05:16;;;;;;;5.10;1.50;;;4.90;99.90;;;;;;5039959;28;20210;-85
2022/12/30 07:07:43;;;;;;;3.33;1.70;;;4.80;99.90;;;;;;5040570;28;20206;-85
2022/12/30 07:10:09;;;;;;;1.37;1.27;;;4.80;99.90;;;;;;5035332;28;20239;-85
2022/12/30 07:12:36;;;;;;;2.17;1.70;;;4.70;99.90;;;;;;5041675;28;20554;-85
2022/12/30 07:15:04;;;;;;;4.03;1.70;;;4.70;99.90;;;;;;5038636;28;20201;-85
2022/12/30 07:17:32;;;;;;;2.13;1.70;;;4.70;99.90;;;;;;5040181;28;20194;-85
2022/12/30 07:19:59;;;;;;;3.67;1.70;;;4.60;99.90;;;;;;5036299;28;20321;-85
2022/12/30 07:22:25;;;;;;;3.53;1.40;;;4.50;99.90;;;;;;5039194;28;20315;-85
2022/12/30 07:24:52;;;;;;;2.90;1.80;;;4.50;99.90;;;;;;5037169;28;20205;-85
2022/12/30 07:27:19;;;;;;;2.70;1.67;;;4.50;99.90;;;;;;5039081;28;20217;-85
2022/12/30 07:29:46;;;;;;;2.67;1.90;;;4.40;99.90;;;;;;5038553;28;20581;-85
2022/12/30 07:32:13;;;;;;;3.47;1.93;;;4.40;99.90;;;;;;5038147;28;20210;-85
2022/12/30 07:34:41;;;;;;;2.80;1.57;;;4.40;99.90;;;;;;5038020;28;20501;-85
2022/12/30 07:37:09;;;;;;;3.60;1.57;;;4.40;99.90;;;;;;5039394;28;20198;-85
2022/12/30 07:39:36;;;;;;;1.80;1.53;;;4.40;99.90;;;;;;5038448;28;20218;-85
2022/12/30 07:42:03;;;;;;;1.97;1.40;;;4.40;99.90;;;;;;5039463;28;20589;-85
2022/12/30 07:44:29;;;;;;;3.67;1.40;;;4.30;99.90;;;;;;5039739;28;20239;-85
2022/12/30 07:46:56;;;;;;;1.90;1.40;;;4.40;99.90;;;;;;5038231;28;20205;-85
2022/12/30 07:49:23;;;;;;;5.93;1.47;;;4.50;99.90;;;;;;5042140;28;20703;-85
2022/12/30 07:51:52;;;;;;;1.83;1.30;;;4.50;99.90;;;;;;5037493;28;20661;-85
2022/12/30 07:54:18;;;;;;;1.37;1.10;;;4.40;99.90;;;;;;5038552;28;20194;-85
2022/12/30 07:56:45;;;;;;;1.50;1.30;;;4.40;99.90;;;;;;5038153;28;20202;-85
2022/12/30 07:59:12;;;;;;;3.47;1.30;;;4.50;99.90;;;;;;5035244;28;20233;-85
2022/12/30 08:01:39;;;;;;;2.50;1.40;;;4.60;99.90;;;;;;5037943;28;20206;-85
2022/12/30 08:04:07;;;;;;;2.03;1.57;;;4.70;99.90;;;;;;5039942;28;20197;-85
2022/12/30 08:06:34;;;;;;;4.00;1.60;;;4.80;99.90;;;;;;5036687;28;20203;-85
2022/12/30 08:09:05;;;;;;;3.23;1.90;;;4.90;99.90;;;;;;5037608;28;20226;-85
2022/12/30 08:11:32;;;;;;;1.57;1.30;;;5.00;99.90;;;;;;5037864;28;20696;-85
2022/12/30 08:13:59;;;;;;;2.07;1.43;;;5.00;99.90;;;;;;5038770;28;20206;-86
2022/12/30 08:16:26;;;;;;;3.57;1.50;;;5.00;99.90;;;;;;5038465;28;20210;-86
2022/12/30 08:18:53;;;;;;;3.43;1.17;;;5.20;99.90;;;;;;5034760;28;20236;-85
2022/12/30 08:21:21;;;;;;;1.25;0.93;;;5.30;99.90;;;;;;5039218;28;20665;-85
2022/12/30 08:23:48;;;;;;;0.90;0.90;;;5.50;99.90;;;;;;5037123;28;20260;-85
2022/12/30 08:26:17;;;;;;;1.17;0.90;;;5.60;99.90;;;;;;5038401;28;20205;-85
2022/12/30 08:28:44;;;;;;;1.73;1.03;;;5.60;99.90;;;;;;5035972;28;20203;-85
2022/12/30 08:31:13;;;;;;;2.07;1.03;;;5.80;99.90;;;;;;5039656;28;20289;-85
2022/12/30 08:33:40;;;;;;;1.48;1.08;;;6.00;99.90;;;;;;5037305;28;20214;-85
2022/12/30 08:36:10;;;;;;;1.17;1.03;;;6.10;99.90;;;;;;5041120;28;20197;-85
2022/12/30 08:38:38;;;;;;;1.52;1.15;;;6.20;99.90;;;;;;5037878;28;20230;-85
2022/12/30 08:41:07;;;;;;;3.00;0.90;;;6.20;99.90;;;;;;5035529;28;20218;-85
2022/12/30 08:43:35;;;;;;;2.10;1.10;;;6.30;99.90;;;;;;5038926;28;20205;-85
2022/12/30 08:46:03;;;;;;;1.30;0.90;;;6.40;99.40;;;;;;5040174;28;20654;-85
2022/12/30 08:48:30;;;;;;;2.20;1.10;;;6.60;98.90;;;;;;5041416;28;20226;-85
2022/12/30 08:50:58;;;;;;;1.40;0.98;;;6.60;98.60;;;;;;5035988;28;20201;-85
2022/12/30 08:53:25;;;;;;;1.88;1.10;;;6.70;98.40;;;;;;5042560;28;20552;-85
2022/12/30 08:56:03;;;;;;;2.20;1.20;;;6.80;97.70;;;;;;5042674;28;20318;-85
2022/12/30 08:58:41;;;;;;;4.35;1.20;;;6.80;97.60;;;;;;5039355;28;20238;-85
2022/12/30 09:01:10;;;;;;;1.75;1.13;;;7.10;98.10;;;;;;5039793;28;20288;-85
2022/12/30 09:03:38;;;;;;;3.75;1.30;;;7.50;97.60;;;;;;5043179;28;20212;-86
2022/12/30 09:06:06;;;;;;;3.50;1.20;;;8.30;96.30;;;;;;5046243;28;20201;-85
2022/12/30 09:08:33;;;;;;;1.42;1.13;;;8.90;93.60;;;;;;5042059;28;20217;-85
2022/12/30 09:11:05;;;;;;;2.17;1.20;;;9.50;92.20;;;;;;5042582;28;20232;-85
2022/12/30 09:13:36;;;;;;;1.15;1.05;;;9.80;90.60;;;;;;5037045;28;20286;-86
2022/12/30 09:16:05;;;;;;;2.17;1.15;;;10.00;88.90;;;;;;5040271;28;20340;-86
2022/12/30 09:18:32;;;;;;;1.10;1.00;;;10.60;82.90;;;;;;5041218;28;20517;-86
2022/12/30 09:20:59;;;;;;;1.33;1.10;;;11.40;74.60;;;;;;5044263;28;20197;-86
2022/12/30 09:23:26;;;;;;;1.23;1.08;;;11.80;64.90;;;;;;5039715;28;20221;-86
2022/12/30 09:25:52;;;;;;;1.48;1.10;;;12.10;54.70;;;;;;5041387;28;20213;-85
2022/12/30 09:28:19;;;;;;;1.15;1.05;;;12.00;57.80;;;;;;5041168;28;20205;-85
2022/12/30 09:30:47;;;;;;;1.20;1.08;;;12.30;52.40;;;;;;5042197;28;20669;-85
2022/12/30 09:33:15;;;;;;;1.30;1.20;;;13.10;46.30;;;;;;5039969;28;20326;-86
2022/12/30 09:35:42;;;;;;;1.52;1.20;;;13.50;43.90;;;;;;5038570;28;20308;-85
2022/12/30 09:38:09;;;;;;;1.05;0.98;;;13.90;39.60;;;;;;5040655;28;20198;-86
2022/12/30 09:40:48;;;;;;;0.95;0.90;;;14.10;34.70;;;;;;5043734;28;20213;-86
2022/12/30 09:43:21;;;;;;;0.90;0.90;;;13.70;34.70;;;;;;5040679;28;20208;-86
2022/12/30 09:46:06;;;;;;;1.08;0.95;;;13.30;36.40;;;;;;5043873;28;20317;-86
2022/12/30 09:48:39;;;;;;;1.00;0.90;;;12.30;42.00;;;;;;5044069;28;20210;-86
2022/12/30 09:51:10;;;;;;;1.13;1.02;;;11.70;46.40;;;;;;5046091;28;20650;-85
2022/12/30 09:53:42;;;;;;;1.08;0.98;;;11.80;51.60;;;;;;5038396;28;20730;-85
2022/12/30 09:56:14;;;;;;;0.85;0.85;;;11.70;49.70;;;;;;5039930;28;20199;-85
2022/12/30 09:58:43;;;;;;;1.75;1.13;;;12.00;48.60;;;;;;5043351;28;20280;-85
2022/12/30 10:01:20;;;;;;;2.10;1.08;;;11.70;51.80;;;;;;5037235;28;20210;-86
2022/12/30 10:03:51;;;;;;;2.58;1.20;;;11.60;52.00;;;;;;5043790;28;20209;-85
2022/12/30 10:06:26;;;;;;;1.60;1.20;;;10.70;64.10;;;;;;5045456;28;20666;-85
2022/12/30 10:09:20;;;;;;;1.30;1.20;;;10.20;73.30;;;;;;5049134;28;20267;-85
2022/12/30 10:12:02;;;;;;;1.10;1.00;;;10.20;78.10;;;;;;5036300;28;20225;-85
2022/12/30 10:14:36;;;;;;;1.02;0.93;;;9.60;83.70;;;;;;5049373;28;20658;-85
2022/12/30 10:17:16;;;;;;;1.17;1.08;;;9.60;87.90;;;;;;5049171;28;20197;-85
2022/12/30 10:19:54;;;;;;;1.00;0.90;;;9.60;83.90;;;;;;5042964;28;20233;-85
2022/12/30 10:22:29;;;;;;;1.20;1.00;;;9.70;83.40;;;;;;5044265;28;20685;-85
2022/12/30 10:25:10;;;;;;;1.10;0.98;;;9.70;84.10;;;;;;5044556;28;20661;-85
2022/12/30 10:27:41;;;;;;;1.13;1.10;;;9.80;84.20;;;;;;5039153;28;20229;-85
2022/12/30 10:30:14;;;;;;;1.70;1.00;;;10.00;80.10;;;;;;5040600;28;20198;-85
2022/12/30 10:32:47;;;;;;;2.08;1.23;;;10.20;77.60;;;;;;5046951;28;20210;-84
2022/12/30 10:35:20;;;;;;;1.30;1.20;;;10.00;77.00;;;;;;5049629;28;20205;-85
2022/12/30 10:37:50;;;;;;;1.08;1.08;;;10.10;77.80;;;;;;5046480;28;20668;-85
2022/12/30 10:40:17;;;;;;;2.13;1.30;;;10.60;73.70;;;;;;5047717;28;20225;-85
2022/12/30 10:43:18;;;;;;;1.60;1.45;;;10.50;70.60;;;;;;5034634;28;20203;-85
2022/12/30 10:45:58;;;;;;;1.67;1.58;;;10.40;69.30;;;;;;5041359;28;20554;-85
2022/12/30 10:49:09;;;;;;;1.52;1.17;;;10.40;68.10;;;;;;5042956;28;20202;-85
2022/12/30 10:51:38;;;;;;;1.30;1.20;;;11.00;62.10;;;;;;5020192;28;20208;-85
2022/12/30 10:54:05;;;;;;;1.20;1.10;;;11.10;57.20;;;;;;5048388;28;20202;-85
2022/12/30 10:56:35;;;;;;;1.20;1.10;;;11.00;63.60;;;;;;5041087;28;20600;-85
2022/12/30 10:59:07;;;;;;;1.40;1.30;;;11.40;55.00;;;;;;5041153;28;20229;-85
2022/12/30 11:01:35;;;;;;;1.40;1.27;;;11.50;52.30;;;;;;5037852;28;20206;-86
2022/12/30 11:04:03;;;;;;;2.15;1.33;;;11.20;52.00;;;;;;5052250;28;20210;-85
2022/12/30 11:06:31;;;;;;;2.40;1.65;;;11.00;60.00;;;;;;5033684;28;20206;-85
2022/12/30 11:09:21;;;;;;;1.50;1.40;;;11.00;58.50;;;;;;5040897;28;20205;-85
2022/12/30 11:14:44;;;;;;;1.65;1.23;;;10.70;64.00;;;;;;5044802;28;20255;-85
2022/12/30 11:17:22;;;;;;;1.20;1.10;;;10.50;73.50;;;;;;5036210;28;20657;-85
2022/12/30 11:19:51;;;;;;;1.42;1.30;;;10.50;68.30;;;;;;5046024;28;20226;-85
2022/12/30 11:22:19;;;;;;;2.67;1.30;;;10.30;71.90;;;;;;5034606;28;20278;-85
2022/12/30 11:24:59;;;;;;;1.20;1.13;;;10.40;72.00;;;;;;5036510;28;20205;-85
2022/12/30 11:27:39;;;;;;;1.63;1.00;;;10.30;73.30;;;;;;5036592;28;20218;-84
2022/12/30 11:30:07;;;;;;;1.00;1.00;;;10.20;75.00;;;;;;5037588;28;20202;-85
2022/12/30 11:32:35;;;;;;;1.20;1.10;;;10.00;76.40;;;;;;5041546;28;20202;-85
2022/12/30 11:35:02;;;;;;;1.48;0.82;;;9.80;78.60;;;;;;5042234;28;20205;-84
2022/12/30 11:37:35;;;;;;;1.10;1.05;;;9.60;82.00;;;;;;5039866;28;20289;-85
2022/12/30 11:40:29;;;;;;;1.17;1.08;;;9.60;80.00;;;;;;5038258;28;20229;-85
2022/12/30 11:43:12;;;;;;;1.02;0.80;;;9.60;77.70;;;;;;5042817;28;20204;-84
2022/12/30 11:45:52;;;;;;;2.00;0.75;;;9.60;77.00;;;;;;5038821;28;20211;-85
2022/12/30 11:48:26;;;;;;;1.23;0.90;;;9.50;77.60;;;;;;5040625;28;20210;-85
2022/12/30 11:50:54;;;;;;;2.13;1.10;;;9.60;76.40;;;;;;5041609;28;20208;-85
2022/12/30 11:53:26;;;;;;;1.85;0.90;;;9.70;77.00;;;;;;5035171;28;20210;-85
2022/12/30 11:55:55;;;;;;;1.33;1.20;;;9.70;74.60;;;;;;5035876;28;20195;-85
2022/12/30 11:58:22;;;;;;;2.17;1.20;;;9.80;74.80;;;;;;5035735;28;20202;-85
2022/12/30 12:00:58;;;;;;;1.50;1.10;;;9.80;74.70;;;;;;5040122;28;20225;-85
2022/12/30 12:03:28;;;;;;;1.10;1.10;;;9.80;74.70;;;;;;5035253;28;20204;-85
2022/12/30 12:06:06;;;;;;;1.10;1.00;;;9.80;73.70;;;;;;5037685;28;20540;-84
2022/12/30 12:08:37;;;;;;;1.25;1.20;;;9.80;74.70;;;;;;5034361;28;20674;-85
2022/12/30 12:11:11;;;;;;;1.30;1.20;;;9.90;74.90;;;;;;5037735;28;20226;-85
2022/12/30 12:13:47;;;;;;;0.90;0.90;;;10.00;73.00;;;;;;5035422;28;20195;-85
2022/12/30 12:16:18;;;;;;;1.38;1.10;;;9.70;72.00;;;;;;5039932;28;20194;-85
2022/12/30 12:18:48;;;;;;;1.30;1.20;;;9.80;71.70;;;;;;5035050;28;20193;-84
2022/12/30 12:21:22;;;;;;;1.20;1.10;;;9.70;70.80;;;;;;5037822;28;20214;-85
2022/12/30 12:23:56;;;;;;;1.30;1.20;;;9.80;71.80;;;;;;5034557;28;20230;-85
2022/12/30 12:26:26;;;;;;;1.15;1.00;;;9.80;69.60;;;;;;5042417;28;20205;-85
2022/12/30 12:28:54;;;;;;;1.25;1.08;;;9.70;69.10;;;;;;5038300;28;20209;-85
2022/12/30 12:31:41;;;;;;;1.27;1.13;;;9.70;72.00;;;;;;5040000;28;20202;-84
2022/12/30 12:34:17;;;;;;;1.35;1.20;;;9.60;70.10;;;;;;5039684;28;20256;-84
2022/12/30 12:36:54;;;;;;;1.42;1.33;;;9.60;74.50;;;;;;5043566;28;20209;-85
2022/12/30 12:39:31;;;;;;;1.40;1.20;;;9.60;73.30;;;;;;5041538;28;20490;-84
2022/12/30 12:42:06;;;;;;;1.20;1.10;;;9.80;72.40;;;;;;5040146;28;20208;-85
2022/12/30 12:45:06;;;;;;;1.10;1.10;;;9.70;70.90;;;;;;5040986;28;20198;-85
2022/12/30 12:47:50;;;;;;;1.33;0.98;;;9.70;74.60;;;;;;5044867;28;20551;-84
2022/12/30 12:50:34;;;;;;;1.38;1.10;;;9.60;74.50;;;;;;5042085;28;20216;-85
2022/12/30 12:53:15;;;;;;;1.25;1.15;;;9.50;74.60;;;;;;5040538;28;20610;-84
2022/12/30 12:56:25;;;;;;;1.30;1.20;;;9.50;75.70;;;;;;5038836;28;20194;-85
2022/12/30 12:59:05;;;;;;;1.70;1.40;;;9.60;75.60;;;;;;5044190;28;20207;-85
2022/12/30 13:01:39;;;;;;;2.28;1.25;;;9.70;75.60;;;;;;5038426;28;20199;-85
2022/12/30 13:04:18;;;;;;;4.20;1.27;;;9.70;74.70;;;;;;5044057;28;20190;-85
2022/12/30 13:06:52;;;;;;;2.10;1.20;;;9.60;76.20;;;;;;5045333;28;20201;-85
2022/12/30 13:09:33;;;;;;;1.30;1.20;;;9.70;76.90;;;;;;5042510;28;20228;-85
2022/12/30 13:12:06;;;;;;;1.90;1.42;;;9.70;77.70;;;;;;5041741;28;20205;-85
2022/12/30 13:14:42;;;;;;;1.48;1.33;;;9.70;79.10;;;;;;5042709;28;20701;-84
2022/12/30 13:17:15;;;;;;;1.60;1.50;;;9.70;78.40;;;;;;5041283;28;20206;-85
2022/12/30 13:19:50;;;;;;;2.08;1.13;;;9.70;77.50;;;;;;5037652;28;20227;-85
2022/12/30 13:22:25;;;;;;;1.75;1.65;;;9.60;78.70;;;;;;5039306;28;20206;-85
2022/12/30 13:24:53;;;;;;;1.45;1.35;;;9.60;79.20;;;;;;5042357;28;20198;-85
2022/12/30 13:27:25;;;;;;;1.38;1.20;;;9.60;79.00;;;;;;5042524;28;20690;-85
2022/12/30 13:29:54;;;;;;;1.70;1.33;;;9.50;78.70;;;;;;5041688;28;20210;-84
2022/12/30 13:32:30;;;;;;;2.53;1.60;;;9.50;80.00;;;;;;5041155;28;20199;-85
2022/12/30 13:35:08;;;;;;;2.03;1.58;;;9.50;79.80;;;;;;5041964;28;20571;-85
2022/12/30 13:37:40;;;;;;;2.13;1.55;;;9.50;79.60;;;;;;5041288;28;20225;-85
2022/12/30 13:40:12;;;;;;;2.92;1.63;;;9.60;79.30;;;;;;5047978;28;20711;-85
2022/12/30 13:42:59;;;;;;;2.80;1.73;;;9.50;78.10;;;;;;5041803;28;20202;-84
2022/12/30 13:45:29;;;;;;;1.70;1.60;;;9.50;79.30;;;;;;5039084;28;20701;-85
2022/12/30 13:48:03;;;;;;;3.13;1.80;;;9.40;79.80;;;;;;5040724;28;20205;-85
2022/12/30 13:50:31;;;;;;;1.70;1.42;;;9.30;81.10;;;;;;5039925;28;20198;-86
2022/12/30 13:53:01;;;;;;;2.03;1.83;;;9.20;82.00;;;;;;5040505;28;20720;-85
2022/12/30 13:55:30;;;;;;;2.35;1.63;;;9.20;82.50;;;;;;5044800;28;20202;-85
2022/12/30 13:58:08;;;;;;;1.88;1.67;;;9.10;83.10;;;;;;5039908;28;20199;-84
2022/12/30 14:00:39;;;;;;;3.00;1.60;;;9.10;84.10;;;;;;5040378;28;20307;-84
2022/12/30 14:03:33;;;;;;;1.80;1.60;;;9.10;84.00;;;;;;5036259;28;20336;-85
2022/12/30 14:06:02;;;;;;;2.00;1.70;;;9.20;84.30;;;;;;5046376;28;20646;-85
2022/12/30 14:08:46;;;;;;;1.80;1.67;;;9.20;85.00;;;;;;5038456;28;20195;-85
2022/12/30 14:11:16;;;;;;;2.25;1.77;;;9.10;85.40;;;;;;5039164;28;20245;-85
2022/12/30 14:13:44;;;;;;;2.65;1.40;;;9.10;86.20;;;;;;5040355;28;20198;-85